PWSweather.com
Personal Weather Stations
Station Observations
CANDIOTINO
Barrio Candioti Norte, Santa FeAR 3000

Barrio Candioti NorteSanta FeAR 3000

Lat: -31.632778, Lon: -60.695556

Elevation: 69

Station Type: WH-1081

http://www.eltiempoensantafe.com.ar

High Low Average
Temperature 87.3°F30.7°C 71.8°F22.1°C 77.7°F25.4°C
Dew Point 70.6°F21.4°C 64.6°F18.1°C 67.9°F19.9°C
Winds 9.8 mph 15.8 kmh Calm Calm 4.0 mph SE6.4 kmh SE
Wind Gusts 17.4 mph28.0 kmh 2.2 mph3.5 kmh 8.0 mph12.9 kmh
Humidity 84% 52% 72%
Pressure 29.88 in1011.9 mb 29.74 in1007.1 mb -
Precipitation 0.00 in0.0 mm - -
Hour Temp Dew Point Humidity Winds Wind Gusts Pressure Precip Precip Rate Daily Precip Total
12:00 AM 79.5°F26.4°C 68.5°F20.3°C 69% 1.6 mph NNE2.6 kmh NNE 3.8 mph6.1 kmh 29.75 in1007.5 mb 0.00 in0.0 mm 0.00 in0.0 mm 0.00 in0.0 mm
12:15 AM 79.3°F26.3°C 68.8°F20.4°C 70% 1.6 mph NNW2.6 kmh NNW 4.5 mph7.2 kmh 29.75 in1007.5 mb 0.00 in0.0 mm 0.00 in0.0 mm 0.00 in0.0 mm
12:30 AM 79.0°F26.1°C 68.8°F20.4°C 71% 1.6 mph NNW2.6 kmh NNW 5.4 mph8.7 kmh 29.74 in1007.1 mb 0.00 in0.0 mm 0.00 in0.0 mm 0.00 in0.0 mm
12:45 AM 78.8°F26.0°C 68.2°F20.1°C 70% 2.2 mph NNE3.5 kmh NNE 4.5 mph7.2 kmh 29.75 in1007.5 mb 0.00 in0.0 mm 0.00 in0.0 mm 0.00 in0.0 mm
01:00 AM 78.4°F25.8°C 68.3°F20.2°C 71% Calm Calm 3.8 mph6.1 kmh 29.75 in1007.5 mb 0.00 in0.0 mm 0.00 in0.0 mm 0.00 in0.0 mm
01:15 AM 77.9°F25.5°C 68.2°F20.1°C 72% Calm Calm 2.2 mph3.5 kmh 29.76 in1007.8 mb 0.00 in0.0 mm 0.00 in0.0 mm 0.00 in0.0 mm
01:30 AM 77.7°F25.4°C 68.8°F20.4°C 74% Calm Calm 2.2 mph3.5 kmh 29.75 in1007.5 mb 0.00 in0.0 mm 0.00 in0.0 mm 0.00 in0.0 mm
01:45 AM 77.2°F25.1°C 70.6°F21.4°C 80% 0.7 mph E1.1 kmh E 3.8 mph6.1 kmh 29.75 in1007.5 mb 0.00 in0.0 mm 0.00 in0.0 mm 0.00 in0.0 mm
02:00 AM 76.6°F24.8°C 70.4°F21.3°C 81% 1.6 mph NE2.6 kmh NE 3.8 mph6.1 kmh 29.75 in1007.5 mb 0.00 in0.0 mm 0.00 in0.0 mm 0.00 in0.0 mm
02:15 AM 76.3°F24.6°C 69.7°F20.9°C 80% 0.7 mph NE1.1 kmh NE 3.1 mph5.0 kmh 29.75 in1007.5 mb 0.00 in0.0 mm 0.00 in0.0 mm 0.00 in0.0 mm
02:30 AM 76.5°F24.7°C 69.1°F20.6°C 78% 0.7 mph NE1.1 kmh NE 2.2 mph3.5 kmh 29.75 in1007.5 mb 0.00 in0.0 mm 0.00 in0.0 mm 0.00 in0.0 mm
02:45 AM 76.6°F24.8°C 68.6°F20.3°C 76% 2.2 mph E3.5 kmh E 5.4 mph8.7 kmh 29.76 in1007.8 mb 0.00 in0.0 mm 0.00 in0.0 mm 0.00 in0.0 mm
03:00 AM 76.6°F24.8°C 67.8°F19.9°C 74% 2.2 mph NE3.5 kmh NE 5.4 mph8.7 kmh 29.75 in1007.5 mb 0.00 in0.0 mm 0.00 in0.0 mm 0.00 in0.0 mm
03:15 AM 75.9°F24.4°C 67.5°F19.7°C 75% 1.6 mph NE2.6 kmh NE 3.8 mph6.1 kmh 29.75 in1007.5 mb 0.00 in0.0 mm 0.00 in0.0 mm 0.00 in0.0 mm
03:30 AM 75.7°F24.3°C 67.3°F19.6°C 75% 2.2 mph E3.5 kmh E 4.5 mph7.2 kmh 29.75 in1007.5 mb 0.00 in0.0 mm 0.00 in0.0 mm 0.00 in0.0 mm
03:45 AM 75.6°F24.2°C 67.1°F19.5°C 75% 1.6 mph NNE2.6 kmh NNE 6.0 mph9.7 kmh 29.75 in1007.5 mb 0.00 in0.0 mm 0.00 in0.0 mm 0.00 in0.0 mm
04:00 AM 75.6°F24.2°C 67.9°F19.9°C 77% 3.1 mph NNE5.0 kmh NNE 6.9 mph11.1 kmh 29.75 in1007.5 mb 0.00 in0.0 mm 0.00 in0.0 mm 0.00 in0.0 mm
04:15 AM 75.6°F24.2°C 68.6°F20.3°C 79% 3.1 mph NNE5.0 kmh NNE 7.6 mph12.2 kmh 29.74 in1007.1 mb 0.00 in0.0 mm 0.00 in0.0 mm 0.00 in0.0 mm
04:30 AM 75.2°F24.0°C 68.3°F20.2°C 79% 6.9 mph N11.1 kmh N 12.1 mph19.5 kmh 29.75 in1007.5 mb 0.00 in0.0 mm 0.00 in0.0 mm 0.00 in0.0 mm
04:45 AM 74.7°F23.7°C 68.5°F20.3°C 81% 5.4 mph NNE8.7 kmh NNE 12.1 mph19.5 kmh 29.75 in1007.5 mb 0.00 in0.0 mm 0.00 in0.0 mm 0.00 in0.0 mm
05:00 AM 74.1°F23.4°C 68.3°F20.2°C 82% 6.0 mph N9.7 kmh N 7.6 mph12.2 kmh 29.76 in1007.8 mb 0.00 in0.0 mm 0.00 in0.0 mm 0.00 in0.0 mm
05:15 AM 74.1°F23.4°C 68.0°F20.0°C 81% 2.2 mph N3.5 kmh N 6.9 mph11.1 kmh 29.77 in1008.1 mb 0.00 in0.0 mm 0.00 in0.0 mm 0.00 in0.0 mm
05:30 AM 73.9°F23.3°C 67.8°F19.9°C 81% 3.1 mph NNW5.0 kmh NNW 6.0 mph9.7 kmh 29.78 in1008.5 mb 0.00 in0.0 mm 0.00 in0.0 mm 0.00 in0.0 mm
05:45 AM 73.8°F23.2°C 67.6°F19.8°C 81% 4.5 mph N7.2 kmh N 6.0 mph9.7 kmh 29.78 in1008.5 mb 0.00 in0.0 mm 0.00 in0.0 mm 0.00 in0.0 mm
06:00 AM 73.8°F23.2°C 67.2°F19.6°C 80% 2.2 mph N3.5 kmh N 7.6 mph12.2 kmh 29.77 in1008.1 mb 0.00 in0.0 mm 0.00 in0.0 mm 0.00 in0.0 mm
06:15 AM 73.8°F23.2°C 66.9°F19.4°C 79% 1.6 mph N2.6 kmh N 5.4 mph8.7 kmh 29.78 in1008.5 mb 0.00 in0.0 mm 0.00 in0.0 mm 0.00 in0.0 mm
06:30 AM 73.6°F23.1°C 67.1°F19.5°C 80% 3.1 mph N5.0 kmh N 5.4 mph8.7 kmh 29.79 in1008.8 mb 0.00 in0.0 mm 0.00 in0.0 mm 0.00 in0.0 mm
06:45 AM 73.2°F22.9°C 67.1°F19.5°C 81% 0.7 mph N1.1 kmh N 4.5 mph7.2 kmh 29.79 in1008.8 mb 0.00 in0.0 mm 0.00 in0.0 mm 0.00 in0.0 mm
07:00 AM 73.4°F23.0°C 66.9°F19.4°C 80% 9.8 mph NW15.8 kmh NW 17.4 mph28.0 kmh 29.82 in1009.8 mb 0.00 in0.0 mm 0.00 in0.0 mm 0.00 in0.0 mm
07:15 AM 72.5°F22.5°C 66.4°F19.1°C 81% 1.6 mph W2.6 kmh W 11.4 mph18.3 kmh 29.81 in1009.5 mb 0.00 in0.0 mm 0.00 in0.0 mm 0.00 in0.0 mm
07:30 AM 72.7°F22.6°C 66.2°F19.0°C 80% 5.4 mph WNW8.7 kmh WNW 10.7 mph17.2 kmh 29.82 in1009.8 mb 0.00 in0.0 mm 0.00 in0.0 mm 0.00 in0.0 mm
07:45 AM 72.7°F22.6°C 65.5°F18.6°C 78% 1.6 mph SW2.6 kmh SW 8.3 mph13.4 kmh 29.83 in1010.2 mb 0.00 in0.0 mm 0.00 in0.0 mm 0.00 in0.0 mm
08:00 AM 73.0°F22.8°C 65.4°F18.6°C 77% 1.6 mph S2.6 kmh S 8.3 mph13.4 kmh 29.82 in1009.8 mb 0.00 in0.0 mm 0.00 in0.0 mm 0.00 in0.0 mm
08:15 AM 73.0°F22.8°C 65.8°F18.8°C 78% 5.4 mph S8.7 kmh S 10.7 mph17.2 kmh 29.82 in1009.8 mb 0.00 in0.0 mm 0.00 in0.0 mm 0.00 in0.0 mm
08:30 AM 73.0°F22.8°C 66.9°F19.4°C 81% 4.5 mph S7.2 kmh S 12.1 mph19.5 kmh 29.83 in1010.2 mb 0.00 in0.0 mm 0.00 in0.0 mm 0.00 in0.0 mm
08:45 AM 73.0°F22.8°C 67.3°F19.6°C 82% 5.4 mph SE8.7 kmh SE 8.3 mph13.4 kmh 29.83 in1010.2 mb 0.00 in0.0 mm 0.00 in0.0 mm 0.00 in0.0 mm
09:00 AM 73.4°F23.0°C 68.3°F20.2°C 84% 6.0 mph S9.7 kmh S 8.3 mph13.4 kmh 29.83 in1010.2 mb 0.00 in0.0 mm 0.00 in0.0 mm 0.00 in0.0 mm
09:15 AM 73.8°F23.2°C 68.3°F20.2°C 83% 5.4 mph S8.7 kmh S 8.3 mph13.4 kmh 29.83 in1010.2 mb 0.00 in0.0 mm 0.00 in0.0 mm 0.00 in0.0 mm
09:30 AM 74.5°F23.6°C 69.0°F20.6°C 83% 4.5 mph S7.2 kmh S 9.8 mph15.8 kmh 29.84 in1010.5 mb 0.00 in0.0 mm 0.00 in0.0 mm 0.00 in0.0 mm
09:45 AM 75.4°F24.1°C 68.8°F20.4°C 80% 2.2 mph SE3.5 kmh SE 5.4 mph8.7 kmh 29.84 in1010.5 mb 0.00 in0.0 mm 0.00 in0.0 mm 0.00 in0.0 mm
10:00 AM 75.9°F24.4°C 69.7°F20.9°C 81% 2.2 mph ENE3.5 kmh ENE 4.5 mph7.2 kmh 29.84 in1010.5 mb 0.00 in0.0 mm 0.00 in0.0 mm 0.00 in0.0 mm
10:15 AM 76.8°F24.9°C 69.9°F21.1°C 79% Calm Calm 2.2 mph3.5 kmh 29.83 in1010.2 mb 0.00 in0.0 mm 0.00 in0.0 mm 0.00 in0.0 mm
10:30 AM 78.3°F25.7°C 69.7°F20.9°C 75% 0.7 mph SE1.1 kmh SE 3.8 mph6.1 kmh 29.83 in1010.2 mb 0.00 in0.0 mm 0.00 in0.0 mm 0.00 in0.0 mm
10:45 AM 78.3°F25.7°C 68.9°F20.5°C 73% 1.6 mph S2.6 kmh S 5.4 mph8.7 kmh 29.83 in1010.2 mb 0.00 in0.0 mm 0.00 in0.0 mm 0.00 in0.0 mm
11:00 AM 78.3°F25.7°C 68.9°F20.5°C 73% 3.1 mph SSE5.0 kmh SSE 5.4 mph8.7 kmh 29.82 in1009.8 mb 0.00 in0.0 mm 0.00 in0.0 mm 0.00 in0.0 mm
11:15 AM 79.7°F26.5°C 69.1°F20.6°C 70% 1.6 mph SSE2.6 kmh SSE 5.4 mph8.7 kmh 29.83 in1010.2 mb 0.00 in0.0 mm 0.00 in0.0 mm 0.00 in0.0 mm
11:30 AM 81.7°F27.6°C 68.8°F20.4°C 65% 1.6 mph SE2.6 kmh SE 4.5 mph7.2 kmh 29.82 in1009.8 mb 0.00 in0.0 mm 0.00 in0.0 mm 0.00 in0.0 mm
11:45 AM 82.6°F28.1°C 69.7°F20.9°C 65% 1.6 mph E2.6 kmh E 8.3 mph13.4 kmh 29.83 in1010.2 mb 0.00 in0.0 mm 0.00 in0.0 mm 0.00 in0.0 mm
12:00 PM 84.4°F29.1°C 69.0°F20.6°C 60% 3.1 mph ENE5.0 kmh ENE 5.4 mph8.7 kmh 29.83 in1010.2 mb 0.00 in0.0 mm 0.00 in0.0 mm 0.00 in0.0 mm
12:15 PM 84.7°F29.3°C 69.4°F20.8°C 60% 1.6 mph E2.6 kmh E 7.6 mph12.2 kmh 29.82 in1009.8 mb 0.00 in0.0 mm 0.00 in0.0 mm 0.00 in0.0 mm
12:30 PM 86.7°F30.4°C 67.6°F19.8°C 53% 1.6 mph E2.6 kmh E 8.3 mph13.4 kmh 29.82 in1009.8 mb 0.00 in0.0 mm 0.00 in0.0 mm 0.00 in0.0 mm
12:45 PM 85.1°F29.5°C 68.2°F20.1°C 57% 0.7 mph E1.1 kmh E 4.5 mph7.2 kmh 29.82 in1009.8 mb 0.00 in0.0 mm 0.00 in0.0 mm 0.00 in0.0 mm
01:00 PM 86.5°F30.3°C 67.4°F19.7°C 53% 2.2 mph E3.5 kmh E 4.5 mph7.2 kmh 29.82 in1009.8 mb 0.00 in0.0 mm 0.00 in0.0 mm 0.00 in0.0 mm
01:15 PM 85.6°F29.8°C 67.7°F19.8°C 55% 0.7 mph NNW1.1 kmh NNW 4.5 mph7.2 kmh 29.81 in1009.5 mb 0.00 in0.0 mm 0.00 in0.0 mm 0.00 in0.0 mm
01:30 PM 87.3°F30.7°C 67.5°F19.7°C 52% 3.8 mph S6.1 kmh S 6.0 mph9.7 kmh 29.81 in1009.5 mb 0.00 in0.0 mm 0.00 in0.0 mm 0.00 in0.0 mm
01:45 PM 84.6°F29.2°C 65.6°F18.7°C 53% 5.4 mph S8.7 kmh S 9.2 mph14.8 kmh 29.81 in1009.5 mb 0.00 in0.0 mm 0.00 in0.0 mm 0.00 in0.0 mm
02:00 PM 82.0°F27.8°C 69.6°F20.9°C 66% 6.9 mph S11.1 kmh S 10.7 mph17.2 kmh 29.79 in1008.8 mb 0.00 in0.0 mm 0.00 in0.0 mm 0.00 in0.0 mm
02:15 PM 82.9°F28.3°C 68.6°F20.3°C 62% 5.4 mph S8.7 kmh S 9.8 mph15.8 kmh 29.79 in1008.8 mb 0.00 in0.0 mm 0.00 in0.0 mm 0.00 in0.0 mm
02:30 PM 84.6°F29.2°C 67.2°F19.6°C 56% 5.4 mph S8.7 kmh S 8.3 mph13.4 kmh 29.79 in1008.8 mb 0.00 in0.0 mm 0.00 in0.0 mm 0.00 in0.0 mm
02:45 PM 82.9°F28.3°C 67.7°F19.8°C 60% 8.3 mph S13.4 kmh S 14.5 mph23.3 kmh 29.79 in1008.8 mb 0.00 in0.0 mm 0.00 in0.0 mm 0.00 in0.0 mm
03:00 PM 84.6°F29.2°C 66.1°F18.9°C 54% 4.5 mph S7.2 kmh S 11.4 mph18.3 kmh 29.78 in1008.5 mb 0.00 in0.0 mm 0.00 in0.0 mm 0.00 in0.0 mm
03:15 PM 82.9°F28.3°C 66.7°F19.3°C 58% 4.5 mph S7.2 kmh S 11.4 mph18.3 kmh 29.78 in1008.5 mb 0.00 in0.0 mm 0.00 in0.0 mm 0.00 in0.0 mm
03:30 PM 82.9°F28.3°C 68.2°F20.1°C 61% 6.9 mph S11.1 kmh S 13.0 mph20.9 kmh 29.77 in1008.1 mb 0.00 in0.0 mm 0.00 in0.0 mm 0.00 in0.0 mm
03:45 PM 81.7°F27.6°C 67.9°F19.9°C 63% 6.9 mph S11.1 kmh S 13.6 mph21.9 kmh 29.78 in1008.5 mb 0.00 in0.0 mm 0.00 in0.0 mm 0.00 in0.0 mm
04:00 PM 82.6°F28.1°C 68.3°F20.2°C 62% 7.6 mph S12.2 kmh S 13.6 mph21.9 kmh 29.78 in1008.5 mb 0.00 in0.0 mm 0.00 in0.0 mm 0.00 in0.0 mm
04:15 PM 82.8°F28.2°C 68.9°F20.5°C 63% 6.0 mph SSW9.7 kmh SSW 13.0 mph20.9 kmh 29.78 in1008.5 mb 0.00 in0.0 mm 0.00 in0.0 mm 0.00 in0.0 mm
04:30 PM 82.4°F28.0°C 68.1°F20.1°C 62% 6.0 mph S9.7 kmh S 10.7 mph17.2 kmh 29.78 in1008.5 mb 0.00 in0.0 mm 0.00 in0.0 mm 0.00 in0.0 mm
04:45 PM 82.4°F28.0°C 67.7°F19.8°C 61% 4.5 mph SSE7.2 kmh SSE 9.8 mph15.8 kmh 29.78 in1008.5 mb 0.00 in0.0 mm 0.00 in0.0 mm 0.00 in0.0 mm
05:00 PM 81.9°F27.7°C 68.5°F20.3°C 64% 3.8 mph S6.1 kmh S 11.4 mph18.3 kmh 29.78 in1008.5 mb 0.00 in0.0 mm 0.00 in0.0 mm 0.00 in0.0 mm
05:15 PM 80.8°F27.1°C 68.4°F20.2°C 66% 5.4 mph SSW8.7 kmh SSW 9.8 mph15.8 kmh 29.78 in1008.5 mb 0.00 in0.0 mm 0.00 in0.0 mm 0.00 in0.0 mm
05:30 PM 80.2°F26.8°C 69.6°F20.9°C 70% 4.5 mph SSE7.2 kmh SSE 13.6 mph21.9 kmh 29.77 in1008.1 mb 0.00 in0.0 mm 0.00 in0.0 mm 0.00 in0.0 mm
05:45 PM 80.1°F26.7°C 69.4°F20.8°C 70% 6.0 mph SSE9.7 kmh SSE 15.2 mph24.5 kmh 29.78 in1008.5 mb 0.00 in0.0 mm 0.00 in0.0 mm 0.00 in0.0 mm
06:00 PM 79.5°F26.4°C 69.7°F20.9°C 72% 6.0 mph S9.7 kmh S 12.1 mph19.5 kmh 29.78 in1008.5 mb 0.00 in0.0 mm 0.00 in0.0 mm 0.00 in0.0 mm
06:15 PM 79.2°F26.2°C 68.6°F20.3°C 70% 5.4 mph S8.7 kmh S 10.7 mph17.2 kmh 29.78 in1008.5 mb 0.00 in0.0 mm 0.00 in0.0 mm 0.00 in0.0 mm
06:30 PM 79.7°F26.5°C 69.1°F20.6°C 70% 6.0 mph S9.7 kmh S 9.8 mph15.8 kmh 29.78 in1008.5 mb 0.00 in0.0 mm 0.00 in0.0 mm 0.00 in0.0 mm
06:45 PM 78.4°F25.8°C 69.1°F20.6°C 73% 5.4 mph S8.7 kmh S 9.2 mph14.8 kmh 29.80 in1009.1 mb 0.00 in0.0 mm 0.00 in0.0 mm 0.00 in0.0 mm
07:00 PM 78.1°F25.6°C 69.2°F20.7°C 74% 6.0 mph S9.7 kmh S 9.8 mph15.8 kmh 29.80 in1009.1 mb 0.00 in0.0 mm 0.00 in0.0 mm 0.00 in0.0 mm
07:15 PM 77.7°F25.4°C 68.8°F20.4°C 74% 2.2 mph SSE3.5 kmh SSE 6.0 mph9.7 kmh 29.80 in1009.1 mb 0.00 in0.0 mm 0.00 in0.0 mm 0.00 in0.0 mm
07:30 PM 77.5°F25.3°C 68.6°F20.3°C 74% 3.1 mph SE5.0 kmh SE 8.3 mph13.4 kmh 29.80 in1009.1 mb 0.00 in0.0 mm 0.00 in0.0 mm 0.00 in0.0 mm
07:45 PM 77.2°F25.1°C 65.8°F18.8°C 68% 4.5 mph SE7.2 kmh SE 9.2 mph14.8 kmh 29.81 in1009.5 mb 0.00 in0.0 mm 0.00 in0.0 mm 0.00 in0.0 mm
08:00 PM 77.2°F25.1°C 66.3°F19.1°C 69% 3.8 mph ESE6.1 kmh ESE 6.9 mph11.1 kmh 29.81 in1009.5 mb 0.00 in0.0 mm 0.00 in0.0 mm 0.00 in0.0 mm
08:15 PM 76.6°F24.8°C 68.2°F20.1°C 75% 2.2 mph ESE3.5 kmh ESE 8.3 mph13.4 kmh 29.82 in1009.8 mb 0.00 in0.0 mm 0.00 in0.0 mm 0.00 in0.0 mm
08:30 PM 75.7°F24.3°C 68.1°F20.1°C 77% 2.2 mph ESE3.5 kmh ESE 6.0 mph9.7 kmh 29.83 in1010.2 mb 0.00 in0.0 mm 0.00 in0.0 mm 0.00 in0.0 mm
08:45 PM 75.7°F24.3°C 66.9°F19.4°C 74% 3.1 mph SE5.0 kmh SE 6.9 mph11.1 kmh 29.83 in1010.2 mb 0.00 in0.0 mm 0.00 in0.0 mm 0.00 in0.0 mm
09:00 PM 75.7°F24.3°C 66.9°F19.4°C 74% 5.4 mph SSE8.7 kmh SSE 7.6 mph12.2 kmh 29.84 in1010.5 mb 0.00 in0.0 mm 0.00 in0.0 mm 0.00 in0.0 mm
09:15 PM 75.4°F24.1°C 67.7°F19.8°C 77% 3.1 mph SSE5.0 kmh SSE 7.6 mph12.2 kmh 29.84 in1010.5 mb 0.00 in0.0 mm 0.00 in0.0 mm 0.00 in0.0 mm
09:30 PM 74.8°F23.8°C 67.6°F19.8°C 78% 8.3 mph SSE13.4 kmh SSE 10.7 mph17.2 kmh 29.85 in1010.8 mb 0.00 in0.0 mm 0.00 in0.0 mm 0.00 in0.0 mm
09:45 PM 74.5°F23.6°C 66.5°F19.2°C 76% 7.6 mph SE12.2 kmh SE 13.0 mph20.9 kmh 29.86 in1011.2 mb 0.00 in0.0 mm 0.00 in0.0 mm 0.00 in0.0 mm
10:00 PM 74.1°F23.4°C 67.2°F19.6°C 79% 4.5 mph SSE7.2 kmh SSE 12.1 mph19.5 kmh 29.86 in1011.2 mb 0.00 in0.0 mm 0.00 in0.0 mm 0.00 in0.0 mm
10:15 PM 73.4°F23.0°C 67.3°F19.6°C 81% 3.8 mph SE6.1 kmh SE 11.4 mph18.3 kmh 29.87 in1011.5 mb 0.00 in0.0 mm 0.00 in0.0 mm 0.00 in0.0 mm
10:30 PM 73.2°F22.9°C 67.1°F19.5°C 81% 8.3 mph SSE13.4 kmh SSE 11.4 mph18.3 kmh 29.87 in1011.5 mb 0.00 in0.0 mm 0.00 in0.0 mm 0.00 in0.0 mm
10:45 PM 73.0°F22.8°C 66.9°F19.4°C 81% 5.4 mph SE8.7 kmh SE 10.7 mph17.2 kmh 29.88 in1011.9 mb 0.00 in0.0 mm 0.00 in0.0 mm 0.00 in0.0 mm
11:00 PM 72.9°F22.7°C 66.0°F18.9°C 79% 9.8 mph SE15.8 kmh SE 13.0 mph20.9 kmh 29.87 in1011.5 mb 0.00 in0.0 mm 0.00 in0.0 mm 0.00 in0.0 mm
11:15 PM 72.5°F22.5°C 64.9°F18.3°C 77% 5.4 mph SE8.7 kmh SE 11.4 mph18.3 kmh 29.88 in1011.9 mb 0.00 in0.0 mm 0.00 in0.0 mm 0.00 in0.0 mm
11:30 PM 72.1°F22.3°C 64.6°F18.1°C 77% 6.0 mph SE9.7 kmh SE 9.2 mph14.8 kmh 29.88 in1011.9 mb 0.00 in0.0 mm 0.00 in0.0 mm 0.00 in0.0 mm
11:45 PM 71.8°F22.1°C 64.6°F18.1°C 78% 6.9 mph SSE11.1 kmh SSE 10.7 mph17.2 kmh 29.87 in1011.5 mb 0.00 in0.0 mm 0.00 in0.0 mm 0.00 in0.0 mm